sensor_id;sensor_type;location;lat;lon;timestamp;temperature;humidity
84276;DHT22;74432;51.212;3.254;2024-03-29T00:00:55;10.80;67.00
84276;DHT22;74432;51.212;3.254;2024-03-29T00:03:21;10.70;66.30
84276;DHT22;74432;51.212;3.254;2024-03-29T00:05:47;10.70;66.20
84276;DHT22;74432;51.212;3.254;2024-03-29T00:08:13;10.70;66.20
84276;DHT22;74432;51.212;3.254;2024-03-29T00:10:38;10.70;66.40
84276;DHT22;74432;51.212;3.254;2024-03-29T00:13:04;10.70;66.20
84276;DHT22;74432;51.212;3.254;2024-03-29T00:15:33;10.70;66.30
84276;DHT22;74432;51.212;3.254;2024-03-29T00:17:59;10.70;66.70
84276;DHT22;74432;51.212;3.254;2024-03-29T00:20:24;10.60;66.60
84276;DHT22;74432;51.212;3.254;2024-03-29T00:22:50;10.60;66.50
84276;DHT22;74432;51.212;3.254;2024-03-29T00:25:16;10.60;66.50
84276;DHT22;74432;51.212;3.254;2024-03-29T00:27:41;10.60;66.60
84276;DHT22;74432;51.212;3.254;2024-03-29T00:30:09;10.50;67.00
84276;DHT22;74432;51.212;3.254;2024-03-29T00:32:35;10.50;66.90
84276;DHT22;74432;51.212;3.254;2024-03-29T00:35:01;10.50;66.80
84276;DHT22;74432;51.212;3.254;2024-03-29T00:37:26;10.50;66.80
84276;DHT22;74432;51.212;3.254;2024-03-29T00:39:52;10.60;66.30
84276;DHT22;74432;51.212;3.254;2024-03-29T00:42:18;10.60;66.80
84276;DHT22;74432;51.212;3.254;2024-03-29T00:44:45;10.60;66.30
84276;DHT22;74432;51.212;3.254;2024-03-29T00:47:11;10.60;65.90
84276;DHT22;74432;51.212;3.254;2024-03-29T00:49:36;10.60;66.20
84276;DHT22;74432;51.212;3.254;2024-03-29T00:52:03;10.60;66.00
84276;DHT22;74432;51.212;3.254;2024-03-29T00:54:29;10.60;65.90
84276;DHT22;74432;51.212;3.254;2024-03-29T00:56:54;10.60;65.60
84276;DHT22;74432;51.212;3.254;2024-03-29T00:59:20;10.60;65.70
84276;DHT22;74432;51.212;3.254;2024-03-29T01:01:46;10.60;66.00
84276;DHT22;74432;51.212;3.254;2024-03-29T01:04:13;10.50;66.30
84276;DHT22;74432;51.212;3.254;2024-03-29T01:06:39;10.60;65.70
84276;DHT22;74432;51.212;3.254;2024-03-29T01:09:06;10.60;65.80
84276;DHT22;74432;51.212;3.254;2024-03-29T01:11:32;10.60;65.80
84276;DHT22;74432;51.212;3.254;2024-03-29T01:13:58;10.60;65.50
84276;DHT22;74432;51.212;3.254;2024-03-29T01:16:24;10.60;65.80
84276;DHT22;74432;51.212;3.254;2024-03-29T01:18:50;10.60;66.10
84276;DHT22;74432;51.212;3.254;2024-03-29T01:21:17;10.50;66.10
84276;DHT22;74432;51.212;3.254;2024-03-29T01:23:43;10.50;65.80
84276;DHT22;74432;51.212;3.254;2024-03-29T01:26:09;10.50;65.90
84276;DHT22;74432;51.212;3.254;2024-03-29T01:28:37;10.50;65.80
84276;DHT22;74432;51.212;3.254;2024-03-29T01:31:03;10.50;65.80
84276;DHT22;74432;51.212;3.254;2024-03-29T01:33:30;10.50;65.90
84276;DHT22;74432;51.212;3.254;2024-03-29T01:35:58;10.50;65.50
84276;DHT22;74432;51.212;3.254;2024-03-29T01:38:24;10.50;65.80
84276;DHT22;74432;51.212;3.254;2024-03-29T01:40:50;10.60;65.80
84276;DHT22;74432;51.212;3.254;2024-03-29T01:43:15;10.50;65.70
84276;DHT22;74432;51.212;3.254;2024-03-29T01:45:42;10.50;66.00
84276;DHT22;74432;51.212;3.254;2024-03-29T01:48:09;10.50;65.80
84276;DHT22;74432;51.212;3.254;2024-03-29T01:50:36;10.50;65.60
84276;DHT22;74432;51.212;3.254;2024-03-29T01:53:04;10.50;65.80
84276;DHT22;74432;51.212;3.254;2024-03-29T01:55:37;10.50;65.70
84276;DHT22;74432;51.212;3.254;2024-03-29T01:58:03;10.50;65.80
84276;DHT22;74432;51.212;3.254;2024-03-29T02:00:33;10.50;65.80
84276;DHT22;74432;51.212;3.254;2024-03-29T02:02:59;10.50;65.40
84276;DHT22;74432;51.212;3.254;2024-03-29T02:05:25;10.50;65.70
84276;DHT22;74432;51.212;3.254;2024-03-29T02:07:51;10.50;65.40
84276;DHT22;74432;51.212;3.254;2024-03-29T02:10:18;10.40;65.70
84276;DHT22;74432;51.212;3.254;2024-03-29T02:12:44;10.40;66.20
84276;DHT22;74432;51.212;3.254;2024-03-29T02:15:15;10.40;65.70
84276;DHT22;74432;51.212;3.254;2024-03-29T02:17:41;10.40;65.70
84276;DHT22;74432;51.212;3.254;2024-03-29T02:20:08;10.50;66.10
84276;DHT22;74432;51.212;3.254;2024-03-29T02:22:37;10.50;65.50
84276;DHT22;74432;51.212;3.254;2024-03-29T02:25:06;10.50;65.40
84276;DHT22;74432;51.212;3.254;2024-03-29T02:27:31;10.50;65.90
84276;DHT22;74432;51.212;3.254;2024-03-29T02:29:57;10.40;66.00
84276;DHT22;74432;51.212;3.254;2024-03-29T02:32:23;10.50;66.10
84276;DHT22;74432;51.212;3.254;2024-03-29T02:34:48;10.40;66.10
84276;DHT22;74432;51.212;3.254;2024-03-29T02:37:14;10.50;66.30
84276;DHT22;74432;51.212;3.254;2024-03-29T02:39:40;10.50;65.80
84276;DHT22;74432;51.212;3.254;2024-03-29T02:42:06;10.50;65.40
84276;DHT22;74432;51.212;3.254;2024-03-29T02:44:31;10.40;65.60
84276;DHT22;74432;51.212;3.254;2024-03-29T02:46:57;10.40;66.60
84276;DHT22;74432;51.212;3.254;2024-03-29T02:49:23;10.40;66.30
84276;DHT22;74432;51.212;3.254;2024-03-29T02:51:48;10.40;66.00
84276;DHT22;74432;51.212;3.254;2024-03-29T02:54:16;10.40;65.70
84276;DHT22;74432;51.212;3.254;2024-03-29T02:56:42;10.40;66.50
84276;DHT22;74432;51.212;3.254;2024-03-29T02:59:08;10.40;66.10
84276;DHT22;74432;51.212;3.254;2024-03-29T03:01:33;10.40;66.50
84276;DHT22;74432;51.212;3.254;2024-03-29T03:03:59;10.40;66.20
84276;DHT22;74432;51.212;3.254;2024-03-29T03:06:24;10.40;66.10
84276;DHT22;74432;51.212;3.254;2024-03-29T03:08:50;10.40;65.80
84276;DHT22;74432;51.212;3.254;2024-03-29T03:11:34;10.40;66.00
84276;DHT22;74432;51.212;3.254;2024-03-29T03:14:00;10.40;66.00
84276;DHT22;74432;51.212;3.254;2024-03-29T03:16:25;10.40;66.20
84276;DHT22;74432;51.212;3.254;2024-03-29T03:18:51;10.40;65.80
84276;DHT22;74432;51.212;3.254;2024-03-29T03:21:17;10.40;66.10
84276;DHT22;74432;51.212;3.254;2024-03-29T03:23:42;10.30;66.30
84276;DHT22;74432;51.212;3.254;2024-03-29T03:26:08;10.40;67.40
84276;DHT22;74432;51.212;3.254;2024-03-29T03:28:33;10.30;67.00
84276;DHT22;74432;51.212;3.254;2024-03-29T03:31:01;10.40;66.90
84276;DHT22;74432;51.212;3.254;2024-03-29T03:33:26;10.40;67.10
84276;DHT22;74432;51.212;3.254;2024-03-29T03:35:52;10.30;67.10
84276;DHT22;74432;51.212;3.254;2024-03-29T03:38:18;10.20;67.70
84276;DHT22;74432;51.212;3.254;2024-03-29T03:40:43;10.10;68.60
84276;DHT22;74432;51.212;3.254;2024-03-29T03:43:09;10.10;68.90
84276;DHT22;74432;51.212;3.254;2024-03-29T03:45:39;10.10;69.80
84276;DHT22;74432;51.212;3.254;2024-03-29T03:48:06;10.00;71.00
84276;DHT22;74432;51.212;3.254;2024-03-29T03:50:32;9.90;71.70
84276;DHT22;74432;51.212;3.254;2024-03-29T03:52:58;9.80;72.40
84276;DHT22;74432;51.212;3.254;2024-03-29T03:55:24;9.70;73.50
84276;DHT22;74432;51.212;3.254;2024-03-29T03:57:50;9.60;73.90
84276;DHT22;74432;51.212;3.254;2024-03-29T04:00:18;9.60;74.70
84276;DHT22;74432;51.212;3.254;2024-03-29T04:02:50;9.60;75.80
84276;DHT22;74432;51.212;3.254;2024-03-29T04:05:19;9.60;74.90
84276;DHT22;74432;51.212;3.254;2024-03-29T04:07:45;9.60;75.20
84276;DHT22;74432;51.212;3.254;2024-03-29T04:10:12;9.60;75.50
84276;DHT22;74432;51.212;3.254;2024-03-29T04:12:38;9.60;75.20
84276;DHT22;74432;51.212;3.254;2024-03-29T04:15:04;9.50;76.10
84276;DHT22;74432;51.212;3.254;2024-03-29T04:17:30;9.50;76.20
84276;DHT22;74432;51.212;3.254;2024-03-29T04:19:57;9.50;76.20
84276;DHT22;74432;51.212;3.254;2024-03-29T04:22:23;9.50;76.30
84276;DHT22;74432;51.212;3.254;2024-03-29T04:24:49;9.50;76.40
84276;DHT22;74432;51.212;3.254;2024-03-29T04:27:15;9.50;76.50
84276;DHT22;74432;51.212;3.254;2024-03-29T04:29:43;9.40;77.10
84276;DHT22;74432;51.212;3.254;2024-03-29T04:32:09;9.40;77.40
84276;DHT22;74432;51.212;3.254;2024-03-29T04:34:35;9.40;77.70
84276;DHT22;74432;51.212;3.254;2024-03-29T04:37:03;9.30;78.00
84276;DHT22;74432;51.212;3.254;2024-03-29T04:39:29;9.40;78.00
84276;DHT22;74432;51.212;3.254;2024-03-29T04:41:54;9.40;79.00
84276;DHT22;74432;51.212;3.254;2024-03-29T04:44:25;9.30;78.80
84276;DHT22;74432;51.212;3.254;2024-03-29T04:46:54;9.30;79.00
84276;DHT22;74432;51.212;3.254;2024-03-29T04:49:22;9.30;78.60
84276;DHT22;74432;51.212;3.254;2024-03-29T04:51:54;9.20;79.20
84276;DHT22;74432;51.212;3.254;2024-03-29T04:54:20;9.20;79.70
84276;DHT22;74432;51.212;3.254;2024-03-29T04:56:45;9.10;80.20
84276;DHT22;74432;51.212;3.254;2024-03-29T04:59:11;9.10;80.90
84276;DHT22;74432;51.212;3.254;2024-03-29T05:01:37;9.10;81.10
84276;DHT22;74432;51.212;3.254;2024-03-29T05:04:02;9.00;81.80
84276;DHT22;74432;51.212;3.254;2024-03-29T05:06:29;9.00;81.80
84276;DHT22;74432;51.212;3.254;2024-03-29T05:08:55;9.10;81.80
84276;DHT22;74432;51.212;3.254;2024-03-29T05:11:21;9.10;82.00
84276;DHT22;74432;51.212;3.254;2024-03-29T05:13:47;9.10;82.40
84276;DHT22;74432;51.212;3.254;2024-03-29T05:16:13;9.00;82.60
84276;DHT22;74432;51.212;3.254;2024-03-29T05:18:38;9.10;82.80
84276;DHT22;74432;51.212;3.254;2024-03-29T05:21:04;9.10;82.60
84276;DHT22;74432;51.212;3.254;2024-03-29T05:23:30;9.20;82.40
84276;DHT22;74432;51.212;3.254;2024-03-29T05:25:56;9.30;82.10
84276;DHT22;74432;51.212;3.254;2024-03-29T05:28:21;9.20;82.30
84276;DHT22;74432;51.212;3.254;2024-03-29T05:30:47;9.20;82.20
84276;DHT22;74432;51.212;3.254;2024-03-29T05:33:13;9.20;82.40
84276;DHT22;74432;51.212;3.254;2024-03-29T05:35:38;9.20;82.30
84276;DHT22;74432;51.212;3.254;2024-03-29T05:38:04;9.30;82.00
84276;DHT22;74432;51.212;3.254;2024-03-29T05:40:30;9.30;82.00
84276;DHT22;74432;51.212;3.254;2024-03-29T05:42:56;9.30;81.70
84276;DHT22;74432;51.212;3.254;2024-03-29T05:45:29;9.30;82.20
84276;DHT22;74432;51.212;3.254;2024-03-29T05:47:55;9.50;81.40
84276;DHT22;74432;51.212;3.254;2024-03-29T05:50:22;9.50;81.70
84276;DHT22;74432;51.212;3.254;2024-03-29T05:52:51;9.40;81.70
84276;DHT22;74432;51.212;3.254;2024-03-29T05:55:17;9.30;81.80
84276;DHT22;74432;51.212;3.254;2024-03-29T05:57:43;9.30;82.50
84276;DHT22;74432;51.212;3.254;2024-03-29T06:00:12;9.40;82.00
84276;DHT22;74432;51.212;3.254;2024-03-29T06:02:39;9.40;81.70
84276;DHT22;74432;51.212;3.254;2024-03-29T06:05:06;9.30;82.90
84276;DHT22;74432;51.212;3.254;2024-03-29T06:07:32;9.20;83.10
84276;DHT22;74432;51.212;3.254;2024-03-29T06:09:59;9.20;83.10
84276;DHT22;74432;51.212;3.254;2024-03-29T06:12:32;9.30;82.70
84276;DHT22;74432;51.212;3.254;2024-03-29T06:14:57;9.50;82.30
84276;DHT22;74432;51.212;3.254;2024-03-29T06:17:42;9.50;82.00
84276;DHT22;74432;51.212;3.254;2024-03-29T06:20:08;9.50;82.50
84276;DHT22;74432;51.212;3.254;2024-03-29T06:22:34;9.60;81.40
84276;DHT22;74432;51.212;3.254;2024-03-29T06:24:59;9.70;80.90
84276;DHT22;74432;51.212;3.254;2024-03-29T06:27:34;9.50;81.90
84276;DHT22;74432;51.212;3.254;2024-03-29T06:30:00;9.60;81.90
84276;DHT22;74432;51.212;3.254;2024-03-29T06:32:26;9.60;81.00
84276;DHT22;74432;51.212;3.254;2024-03-29T06:34:52;9.60;81.10
84276;DHT22;74432;51.212;3.254;2024-03-29T06:37:18;9.60;81.20
84276;DHT22;74432;51.212;3.254;2024-03-29T06:39:47;9.70;81.40
84276;DHT22;74432;51.212;3.254;2024-03-29T06:42:13;9.80;81.00
84276;DHT22;74432;51.212;3.254;2024-03-29T06:44:39;9.80;81.10
84276;DHT22;74432;51.212;3.254;2024-03-29T06:47:06;9.70;81.80
84276;DHT22;74432;51.212;3.254;2024-03-29T06:49:32;9.80;81.40
84276;DHT22;74432;51.212;3.254;2024-03-29T06:51:58;9.80;81.80
84276;DHT22;74432;51.212;3.254;2024-03-29T06:54:29;9.90;81.60
84276;DHT22;74432;51.212;3.254;2024-03-29T06:56:56;10.00;81.20
84276;DHT22;74432;51.212;3.254;2024-03-29T06:59:21;10.00;81.60
84276;DHT22;74432;51.212;3.254;2024-03-29T07:01:48;9.90;81.90
84276;DHT22;74432;51.212;3.254;2024-03-29T07:04:18;10.00;82.30
84276;DHT22;74432;51.212;3.254;2024-03-29T07:06:45;10.20;83.20
84276;DHT22;74432;51.212;3.254;2024-03-29T07:09:13;10.10;81.70
84276;DHT22;74432;51.212;3.254;2024-03-29T07:11:39;10.00;82.00
84276;DHT22;74432;51.212;3.254;2024-03-29T07:14:05;10.10;82.20
84276;DHT22;74432;51.212;3.254;2024-03-29T07:16:32;10.10;81.60
84276;DHT22;74432;51.212;3.254;2024-03-29T07:18:57;10.10;82.00
84276;DHT22;74432;51.212;3.254;2024-03-29T07:21:24;9.90;82.90
84276;DHT22;74432;51.212;3.254;2024-03-29T07:23:50;9.90;83.70
84276;DHT22;74432;51.212;3.254;2024-03-29T07:26:16;9.90;83.70
84276;DHT22;74432;51.212;3.254;2024-03-29T07:28:41;9.80;83.70
84276;DHT22;74432;51.212;3.254;2024-03-29T07:31:08;9.90;84.10
84276;DHT22;74432;51.212;3.254;2024-03-29T07:33:34;10.00;83.10
84276;DHT22;74432;51.212;3.254;2024-03-29T07:36:00;10.00;82.80
84276;DHT22;74432;51.212;3.254;2024-03-29T07:38:25;10.10;83.10
84276;DHT22;74432;51.212;3.254;2024-03-29T07:40:51;10.20;83.00
84276;DHT22;74432;51.212;3.254;2024-03-29T07:43:21;10.20;82.70
84276;DHT22;74432;51.212;3.254;2024-03-29T07:45:47;10.20;82.50
84276;DHT22;74432;51.212;3.254;2024-03-29T07:48:14;10.20;82.30
84276;DHT22;74432;51.212;3.254;2024-03-29T07:50:44;10.50;82.40
84276;DHT22;74432;51.212;3.254;2024-03-29T07:53:10;10.50;81.90
84276;DHT22;74432;51.212;3.254;2024-03-29T07:55:38;10.70;80.90
84276;DHT22;74432;51.212;3.254;2024-03-29T07:58:04;10.80;80.50
84276;DHT22;74432;51.212;3.254;2024-03-29T08:00:34;10.90;80.50
84276;DHT22;74432;51.212;3.254;2024-03-29T08:03:00;10.90;79.40
84276;DHT22;74432;51.212;3.254;2024-03-29T08:05:27;11.00;79.80
84276;DHT22;74432;51.212;3.254;2024-03-29T08:07:53;11.20;79.90
84276;DHT22;74432;51.212;3.254;2024-03-29T08:10:18;11.20;79.30
84276;DHT22;74432;51.212;3.254;2024-03-29T08:12:44;11.40;78.80
84276;DHT22;74432;51.212;3.254;2024-03-29T08:15:10;11.50;79.50
84276;DHT22;74432;51.212;3.254;2024-03-29T08:17:36;11.70;77.60
84276;DHT22;74432;51.212;3.254;2024-03-29T08:20:03;11.70;76.80
84276;DHT22;74432;51.212;3.254;2024-03-29T08:22:29;11.70;76.00
84276;DHT22;74432;51.212;3.254;2024-03-29T08:24:57;11.90;77.40
84276;DHT22;74432;51.212;3.254;2024-03-29T08:27:23;12.10;76.20
84276;DHT22;74432;51.212;3.254;2024-03-29T08:29:49;12.10;76.00
84276;DHT22;74432;51.212;3.254;2024-03-29T08:32:16;12.30;74.70
84276;DHT22;74432;51.212;3.254;2024-03-29T08:34:41;12.30;74.10
84276;DHT22;74432;51.212;3.254;2024-03-29T08:37:07;12.30;74.20
84276;DHT22;74432;51.212;3.254;2024-03-29T08:39:33;12.10;74.00
84276;DHT22;74432;51.212;3.254;2024-03-29T08:41:59;11.90;74.80
84276;DHT22;74432;51.212;3.254;2024-03-29T08:44:30;12.00;74.10
84276;DHT22;74432;51.212;3.254;2024-03-29T08:46:56;12.00;74.50
84276;DHT22;74432;51.212;3.254;2024-03-29T08:49:24;12.00;74.20
84276;DHT22;74432;51.212;3.254;2024-03-29T08:51:50;11.60;75.70
84276;DHT22;74432;51.212;3.254;2024-03-29T08:54:15;11.60;75.30
84276;DHT22;74432;51.212;3.254;2024-03-29T08:56:41;11.60;75.80
84276;DHT22;74432;51.212;3.254;2024-03-29T08:59:07;11.60;76.60
84276;DHT22;74432;51.212;3.254;2024-03-29T09:01:37;11.60;75.60
84276;DHT22;74432;51.212;3.254;2024-03-29T09:04:03;11.70;74.80
84276;DHT22;74432;51.212;3.254;2024-03-29T09:06:32;11.90;75.40
84276;DHT22;74432;51.212;3.254;2024-03-29T09:08:58;11.90;74.70
84276;DHT22;74432;51.212;3.254;2024-03-29T09:11:24;11.80;74.60
84276;DHT22;74432;51.212;3.254;2024-03-29T09:13:50;11.90;75.40
84276;DHT22;74432;51.212;3.254;2024-03-29T09:16:15;11.90;75.60
84276;DHT22;74432;51.212;3.254;2024-03-29T09:18:42;12.00;75.50
84276;DHT22;74432;51.212;3.254;2024-03-29T09:21:07;12.00;74.60
84276;DHT22;74432;51.212;3.254;2024-03-29T09:23:34;12.00;74.90
84276;DHT22;74432;51.212;3.254;2024-03-29T09:26:00;12.10;75.20
84276;DHT22;74432;51.212;3.254;2024-03-29T09:28:29;12.20;74.60
84276;DHT22;74432;51.212;3.254;2024-03-29T09:31:00;12.40;73.60
84276;DHT22;74432;51.212;3.254;2024-03-29T09:33:27;12.50;72.00
84276;DHT22;74432;51.212;3.254;2024-03-29T09:35:54;12.50;71.60
84276;DHT22;74432;51.212;3.254;2024-03-29T09:38:20;12.30;71.80
84276;DHT22;74432;51.212;3.254;2024-03-29T09:40:47;12.20;73.90
84276;DHT22;74432;51.212;3.254;2024-03-29T09:43:17;12.10;73.80
84276;DHT22;74432;51.212;3.254;2024-03-29T09:45:44;12.20;73.70
84276;DHT22;74432;51.212;3.254;2024-03-29T09:48:10;12.20;72.80
84276;DHT22;74432;51.212;3.254;2024-03-29T09:50:36;12.30;73.40
84276;DHT22;74432;51.212;3.254;2024-03-29T09:53:04;12.50;72.70
84276;DHT22;74432;51.212;3.254;2024-03-29T09:55:30;12.50;72.70
84276;DHT22;74432;51.212;3.254;2024-03-29T09:57:57;12.60;71.20
84276;DHT22;74432;51.212;3.254;2024-03-29T10:00:25;12.70;71.00
84276;DHT22;74432;51.212;3.254;2024-03-29T10:02:53;12.80;71.10
84276;DHT22;74432;51.212;3.254;2024-03-29T10:05:22;13.00;71.50
84276;DHT22;74432;51.212;3.254;2024-03-29T10:07:50;13.00;69.90
84276;DHT22;74432;51.212;3.254;2024-03-29T10:10:16;12.90;70.50
84276;DHT22;74432;51.212;3.254;2024-03-29T10:12:43;12.90;70.60
84276;DHT22;74432;51.212;3.254;2024-03-29T10:15:09;12.90;69.30
84276;DHT22;74432;51.212;3.254;2024-03-29T10:17:39;13.20;69.60
84276;DHT22;74432;51.212;3.254;2024-03-29T10:20:06;13.50;69.70
84276;DHT22;74432;51.212;3.254;2024-03-29T10:22:42;13.30;67.90
84276;DHT22;74432;51.212;3.254;2024-03-29T10:25:13;13.40;67.90
84276;DHT22;74432;51.212;3.254;2024-03-29T10:27:39;13.50;68.40
84276;DHT22;74432;51.212;3.254;2024-03-29T10:30:09;13.60;67.30
84276;DHT22;74432;51.212;3.254;2024-03-29T10:32:39;13.70;66.30
84276;DHT22;74432;51.212;3.254;2024-03-29T10:35:09;13.80;65.30
84276;DHT22;74432;51.212;3.254;2024-03-29T10:37:36;13.70;66.10
84276;DHT22;74432;51.212;3.254;2024-03-29T10:40:11;14.00;66.10
84276;DHT22;74432;51.212;3.254;2024-03-29T10:42:41;14.10;64.40
84276;DHT22;74432;51.212;3.254;2024-03-29T10:45:07;14.00;66.50
84276;DHT22;74432;51.212;3.254;2024-03-29T10:47:33;14.10;66.20
84276;DHT22;74432;51.212;3.254;2024-03-29T10:49:59;14.40;65.70
84276;DHT22;74432;51.212;3.254;2024-03-29T10:52:26;14.20;64.80
84276;DHT22;74432;51.212;3.254;2024-03-29T10:54:53;14.20;63.60
84276;DHT22;74432;51.212;3.254;2024-03-29T10:57:23;14.40;63.30
84276;DHT22;74432;51.212;3.254;2024-03-29T11:05:16;14.20;62.70
84276;DHT22;74432;51.212;3.254;2024-03-29T11:07:43;14.60;62.10
84276;DHT22;74432;51.212;3.254;2024-03-29T11:10:17;14.50;61.80
84276;DHT22;74432;51.212;3.254;2024-03-29T11:13:03;14.50;61.90
84276;DHT22;74432;51.212;3.254;2024-03-29T11:15:31;14.50;62.00
84276;DHT22;74432;51.212;3.254;2024-03-29T11:17:57;14.60;61.40
84276;DHT22;74432;51.212;3.254;2024-03-29T11:20:25;14.50;59.80
84276;DHT22;74432;51.212;3.254;2024-03-29T11:23:04;14.80;60.00
84276;DHT22;74432;51.212;3.254;2024-03-29T11:25:43;15.00;59.20
84276;DHT22;74432;51.212;3.254;2024-03-29T11:28:12;15.10;59.00
84276;DHT22;74432;51.212;3.254;2024-03-29T11:30:49;14.90;59.10
84276;DHT22;74432;51.212;3.254;2024-03-29T11:33:29;14.80;60.00
84276;DHT22;74432;51.212;3.254;2024-03-29T11:35:55;14.70;58.10
84276;DHT22;74432;51.212;3.254;2024-03-29T11:38:21;14.80;59.80
84276;DHT22;74432;51.212;3.254;2024-03-29T11:41:16;15.10;60.10
84276;DHT22;74432;51.212;3.254;2024-03-29T11:43:42;15.20;58.30
84276;DHT22;74432;51.212;3.254;2024-03-29T11:46:13;15.00;57.20
84276;DHT22;74432;51.212;3.254;2024-03-29T11:48:39;15.20;58.00
84276;DHT22;74432;51.212;3.254;2024-03-29T11:51:07;15.60;58.20
84276;DHT22;74432;51.212;3.254;2024-03-29T11:53:37;15.70;56.90
84276;DHT22;74432;51.212;3.254;2024-03-29T11:56:04;16.00;55.50
84276;DHT22;74432;51.212;3.254;2024-03-29T11:58:32;15.80;55.90
84276;DHT22;74432;51.212;3.254;2024-03-29T12:00:59;16.10;56.30
84276;DHT22;74432;51.212;3.254;2024-03-29T12:03:26;16.00;55.70
84276;DHT22;74432;51.212;3.254;2024-03-29T12:05:54;16.10;55.10
84276;DHT22;74432;51.212;3.254;2024-03-29T12:08:27;16.00;55.10
84276;DHT22;74432;51.212;3.254;2024-03-29T12:10:53;16.30;55.30
84276;DHT22;74432;51.212;3.254;2024-03-29T12:13:19;16.40;55.00
84276;DHT22;74432;51.212;3.254;2024-03-29T12:15:44;16.00;54.20
84276;DHT22;74432;51.212;3.254;2024-03-29T12:18:10;15.90;54.10
84276;DHT22;74432;51.212;3.254;2024-03-29T12:20:38;16.00;55.60
84276;DHT22;74432;51.212;3.254;2024-03-29T12:23:06;15.70;54.50
84276;DHT22;74432;51.212;3.254;2024-03-29T12:25:33;15.70;53.70
84276;DHT22;74432;51.212;3.254;2024-03-29T12:27:59;15.60;53.00
84276;DHT22;74432;51.212;3.254;2024-03-29T12:30:26;15.70;53.40
84276;DHT22;74432;51.212;3.254;2024-03-29T12:33:11;15.70;53.70
84276;DHT22;74432;51.212;3.254;2024-03-29T12:35:41;15.60;54.50
84276;DHT22;74432;51.212;3.254;2024-03-29T12:38:07;15.80;54.90
84276;DHT22;74432;51.212;3.254;2024-03-29T12:40:34;15.90;54.40
84276;DHT22;74432;51.212;3.254;2024-03-29T12:43:04;15.90;54.20
84276;DHT22;74432;51.212;3.254;2024-03-29T12:45:31;15.80;53.70
84276;DHT22;74432;51.212;3.254;2024-03-29T12:47:57;15.70;54.50
84276;DHT22;74432;51.212;3.254;2024-03-29T12:50:31;15.80;52.80
84276;DHT22;74432;51.212;3.254;2024-03-29T12:52:59;16.00;53.50
84276;DHT22;74432;51.212;3.254;2024-03-29T12:55:27;16.00;53.10
84276;DHT22;74432;51.212;3.254;2024-03-29T12:57:56;15.70;52.60
84276;DHT22;74432;51.212;3.254;2024-03-29T13:00:21;15.60;54.30
84276;DHT22;74432;51.212;3.254;2024-03-29T13:02:47;15.60;54.40
84276;DHT22;74432;51.212;3.254;2024-03-29T13:05:13;15.50;54.80
84276;DHT22;74432;51.212;3.254;2024-03-29T13:07:39;15.50;56.10
84276;DHT22;74432;51.212;3.254;2024-03-29T13:10:05;15.70;55.40
84276;DHT22;74432;51.212;3.254;2024-03-29T13:13:00;15.80;54.00
84276;DHT22;74432;51.212;3.254;2024-03-29T13:15:26;15.70;54.70
84276;DHT22;74432;51.212;3.254;2024-03-29T13:17:54;16.00;53.60
84276;DHT22;74432;51.212;3.254;2024-03-29T13:20:21;15.70;53.30
84276;DHT22;74432;51.212;3.254;2024-03-29T13:22:48;15.80;53.50
84276;DHT22;74432;51.212;3.254;2024-03-29T13:25:19;16.00;54.60
84276;DHT22;74432;51.212;3.254;2024-03-29T13:27:46;16.20;51.70
84276;DHT22;74432;51.212;3.254;2024-03-29T13:30:13;16.10;51.40
84276;DHT22;74432;51.212;3.254;2024-03-29T13:32:41;15.90;52.60
84276;DHT22;74432;51.212;3.254;2024-03-29T13:35:08;16.00;53.30
84276;DHT22;74432;51.212;3.254;2024-03-29T13:37:38;16.20;51.80
84276;DHT22;74432;51.212;3.254;2024-03-29T13:40:06;15.90;53.60
84276;DHT22;74432;51.212;3.254;2024-03-29T13:42:33;15.90;53.80
84276;DHT22;74432;51.212;3.254;2024-03-29T13:44:58;16.40;51.80
84276;DHT22;74432;51.212;3.254;2024-03-29T13:47:27;16.50;52.50
84276;DHT22;74432;51.212;3.254;2024-03-29T13:49:52;16.40;51.70
84276;DHT22;74432;51.212;3.254;2024-03-29T13:52:20;16.50;53.70
84276;DHT22;74432;51.212;3.254;2024-03-29T13:54:46;16.60;52.70
84276;DHT22;74432;51.212;3.254;2024-03-29T13:57:18;16.60;51.40
84276;DHT22;74432;51.212;3.254;2024-03-29T13:59:44;16.50;51.30
84276;DHT22;74432;51.212;3.254;2024-03-29T14:02:15;16.30;51.20
84276;DHT22;74432;51.212;3.254;2024-03-29T14:04:42;16.10;51.80
84276;DHT22;74432;51.212;3.254;2024-03-29T14:07:09;16.10;53.10
84276;DHT22;74432;51.212;3.254;2024-03-29T14:09:45;16.30;53.70
84276;DHT22;74432;51.212;3.254;2024-03-29T14:12:14;16.30;52.60
84276;DHT22;74432;51.212;3.254;2024-03-29T14:14:40;16.40;52.20
84276;DHT22;74432;51.212;3.254;2024-03-29T14:17:09;16.20;51.70
84276;DHT22;74432;51.212;3.254;2024-03-29T14:19:39;16.10;53.00
84276;DHT22;74432;51.212;3.254;2024-03-29T14:22:05;15.90;52.10
84276;DHT22;74432;51.212;3.254;2024-03-29T14:24:32;16.00;52.70
84276;DHT22;74432;51.212;3.254;2024-03-29T14:27:02;16.00;53.70
84276;DHT22;74432;51.212;3.254;2024-03-29T14:29:29;16.20;53.40
84276;DHT22;74432;51.212;3.254;2024-03-29T14:31:55;16.10;53.40
84276;DHT22;74432;51.212;3.254;2024-03-29T14:34:23;16.00;53.50
84276;DHT22;74432;51.212;3.254;2024-03-29T14:36:50;16.10;54.20
84276;DHT22;74432;51.212;3.254;2024-03-29T14:39:17;16.20;54.30
84276;DHT22;74432;51.212;3.254;2024-03-29T14:41:44;15.90;53.60
84276;DHT22;74432;51.212;3.254;2024-03-29T14:44:12;15.80;54.10
84276;DHT22;74432;51.212;3.254;2024-03-29T14:46:38;15.80;55.40
84276;DHT22;74432;51.212;3.254;2024-03-29T14:49:04;15.90;55.00
84276;DHT22;74432;51.212;3.254;2024-03-29T14:51:36;15.90;54.20
84276;DHT22;74432;51.212;3.254;2024-03-29T14:54:02;16.00;54.30
84276;DHT22;74432;51.212;3.254;2024-03-29T14:56:29;16.10;53.00
84276;DHT22;74432;51.212;3.254;2024-03-29T14:59:02;15.80;54.10
84276;DHT22;74432;51.212;3.254;2024-03-29T15:01:27;15.70;53.50
84276;DHT22;74432;51.212;3.254;2024-03-29T15:03:53;15.50;54.30
84276;DHT22;74432;51.212;3.254;2024-03-29T15:06:20;15.70;54.30
84276;DHT22;74432;51.212;3.254;2024-03-29T15:08:47;15.80;53.60
84276;DHT22;74432;51.212;3.254;2024-03-29T15:11:13;15.80;54.00
84276;DHT22;74432;51.212;3.254;2024-03-29T15:13:39;15.90;53.80
84276;DHT22;74432;51.212;3.254;2024-03-29T15:16:05;15.90;54.30
84276;DHT22;74432;51.212;3.254;2024-03-29T15:18:30;16.00;54.70
84276;DHT22;74432;51.212;3.254;2024-03-29T15:20:58;16.10;54.60
84276;DHT22;74432;51.212;3.254;2024-03-29T15:23:25;16.20;53.40
84276;DHT22;74432;51.212;3.254;2024-03-29T15:25:55;16.10;53.70
84276;DHT22;74432;51.212;3.254;2024-03-29T15:28:22;16.00;53.40
84276;DHT22;74432;51.212;3.254;2024-03-29T15:31:14;15.90;54.00
84276;DHT22;74432;51.212;3.254;2024-03-29T15:33:45;15.90;53.60
84276;DHT22;74432;51.212;3.254;2024-03-29T15:36:11;15.90;54.00
84276;DHT22;74432;51.212;3.254;2024-03-29T15:38:38;15.80;54.10
84276;DHT22;74432;51.212;3.254;2024-03-29T15:41:04;15.80;54.30